Time;durP1;ratioP1;P1;durP2;ratioP2;P2;SDS_P1;SDS_P2;PMS_P1;PMS_P2;Temp;Humidity;BMP_temperature;BMP_pressure;BME280_temperature;BME280_humidity;BME280_pressure;Samples;Min_cycle;Max_cycle;Signal;HPM_P1;HPM_P2
2023/11/25 00:02:08;;;;;;;27.50;10.20;;;;;;;1.21;76.56;96994.48;105722;1252;96540;-72
2023/11/25 00:04:36;;;;;;;26.10;10.60;;;;;;;1.19;76.28;96989.17;105353;1266;108927;-73
2023/11/25 00:07:04;;;;;;;29.00;10.80;;;;;;;1.18;76.29;96993.24;105748;1255;96628;-72
2023/11/25 00:09:32;;;;;;;27.40;10.50;;;;;;;1.18;76.41;96992.77;105485;1253;105431;-72
2023/11/25 00:12:00;;;;;;;24.50;9.50;;;;;;;1.18;76.60;96989.10;105216;1259;96659;-72
2023/11/25 00:14:28;;;;;;;24.60;9.30;;;;;;;1.20;76.47;96993.34;105537;1253;96637;-72
2023/11/25 00:16:56;;;;;;;25.70;10.00;;;;;;;1.21;76.43;96994.83;105551;1253;110670;-72
2023/11/25 00:19:24;;;;;;;25.80;8.90;;;;;;;1.19;76.56;96990.20;105388;1253;97908;-72
2023/11/25 00:21:52;;;;;;;23.40;9.70;;;;;;;1.20;76.57;96988.61;105661;1253;107688;-73
2023/11/25 00:24:20;;;;;;;25.30;9.10;;;;;;;1.20;76.39;96992.28;105580;1262;96617;-71
2023/11/25 00:26:48;;;;;;;22.00;8.80;;;;;;;1.19;76.54;96990.38;105653;1253;96534;-72
2023/11/25 00:29:17;;;;;;;24.70;10.00;;;;;;;1.18;76.21;96991.91;105733;1256;109931;-73
2023/11/25 00:31:54;;;;;;;28.70;10.80;;;;;;;1.13;76.52;96997.29;105633;1255;96676;-72
2023/11/25 00:34:24;;;;;;;24.20;9.80;;;;;;;1.09;76.37;97003.29;105463;1268;107779;-72
2023/11/25 00:36:52;;;;;;;25.40;9.50;;;;;;;1.05;76.34;97003.05;105578;1267;96615;-72
2023/11/25 00:39:20;;;;;;;30.10;11.00;;;;;;;1.02;76.55;97003.02;105635;1255;97800;-73
2023/11/25 00:41:48;;;;;;;26.00;9.60;;;;;;;1.02;76.16;97001.98;105247;1255;109934;-72
2023/11/25 00:44:16;;;;;;;22.00;8.30;;;;;;;1.00;76.48;97005.09;105664;1256;96589;-71
2023/11/25 00:46:44;;;;;;;24.30;9.10;;;;;;;1.01;76.41;97006.48;105526;1256;107645;-72
2023/11/25 00:49:13;;;;;;;26.40;9.30;;;;;;;1.00;76.50;97005.46;105426;1258;96678;-74
2023/11/25 00:51:42;;;;;;;22.30;8.80;;;;;;;1.03;76.49;97003.86;105585;1255;97452;-73
2023/11/25 00:54:10;;;;;;;25.20;10.20;;;;;;;1.05;76.27;97004.11;105675;1256;110013;-72
2023/11/25 00:56:38;;;;;;;29.90;11.10;;;;;;;1.07;76.36;97001.67;105391;1264;97511;-72
2023/11/25 00:59:07;;;;;;;24.10;9.50;;;;;;;1.10;76.64;96993.81;105380;1256;107165;-72
2023/11/25 01:01:35;;;;;;;23.50;9.50;;;;;;;1.12;76.65;96993.85;105469;1253;96696;-72
2023/11/25 01:04:03;;;;;;;26.40;10.00;;;;;;;1.15;76.38;96985.81;105421;1255;97516;-71
2023/11/25 01:06:32;;;;;;;30.40;10.60;;;;;;;1.17;76.58;96981.64;105428;1255;110054;-71
2023/11/25 01:08:59;;;;;;;26.30;10.90;;;;;;;1.18;76.62;96977.54;105597;1253;96510;-74
2023/11/25 01:11:27;;;;;;;27.70;10.90;;;;;;;1.21;76.57;96972.48;105440;1268;107650;-72
2023/11/25 01:13:55;;;;;;;25.00;9.40;;;;;;;1.22;76.51;96969.66;105587;1256;96611;-72
2023/11/25 01:16:24;;;;;;;23.10;8.20;;;;;;;1.18;76.64;96971.41;106427;1253;96589;-72
2023/11/25 01:18:53;;;;;;;21.50;8.10;;;;;;;1.14;76.41;96977.64;105773;1266;110079;-72
2023/11/25 01:21:20;;;;;;;19.20;7.10;;;;;;;1.11;76.31;96980.63;105558;1267;97919;-72
2023/11/25 01:23:48;;;;;;;23.50;7.50;;;;;;;1.10;76.23;96980.88;105618;1256;106322;-72
2023/11/25 01:26:17;;;;;;;22.70;8.10;;;;;;;1.07;76.29;96975.17;105247;1258;96626;-73
2023/11/25 01:28:45;;;;;;;20.20;6.60;;;;;;;1.02;76.35;96971.46;105280;1256;96565;-72
2023/11/25 01:31:14;;;;;;;21.40;6.60;;;;;;;0.96;76.40;96969.80;105481;1257;109826;-72
2023/11/25 01:33:42;;;;;;;17.10;6.00;;;;;;;0.89;76.68;96971.65;105299;1256;96598;-72
2023/11/25 01:36:10;;;;;;;19.70;7.10;;;;;;;0.82;76.53;96971.39;105152;1269;108272;-72
2023/11/25 01:38:39;;;;;;;19.00;5.70;;;;;;;0.76;76.31;96969.73;105361;1255;97816;-71
2023/11/25 01:41:06;;;;;;;20.30;6.40;;;;;;;0.69;76.40;96970.35;105309;1259;96616;-72
2023/11/25 01:43:34;;;;;;;15.40;5.80;;;;;;;0.64;76.47;96971.05;105428;1258;109696;-72
2023/11/25 01:46:04;;;;;;;21.60;7.70;;;;;;;0.61;76.58;96974.55;105476;1256;96560;-72
2023/11/25 01:48:34;;;;;;;21.30;9.00;;;;;;;0.61;76.46;96969.32;105542;1255;106940;-72
2023/11/25 01:51:03;;;;;;;23.70;11.10;;;;;;;0.61;76.85;96972.45;105410;1256;96671;-72
2023/11/25 01:53:33;;;;;;;22.80;9.70;;;;;;;0.65;76.85;96974.60;105370;1256;97415;-73
2023/11/25 01:56:02;;;;;;;20.40;8.10;;;;;;;0.68;76.67;96971.11;105453;1255;110167;-72
2023/11/25 01:58:30;;;;;;;20.10;7.00;;;;;;;0.68;76.69;96972.36;105463;1257;97735;-72
2023/11/25 02:00:59;;;;;;;19.50;8.30;;;;;;;0.72;76.83;96971.89;105351;1256;107438;-72
2023/11/25 02:03:27;;;;;;;21.20;7.30;;;;;;;0.76;77.12;96975.47;105587;1255;96607;-72
2023/11/25 02:05:55;;;;;;;18.90;7.30;;;;;;;0.81;77.21;96974.63;105426;1255;96521;-71
2023/11/25 02:08:23;;;;;;;19.20;7.60;;;;;;;0.86;76.94;96981.63;105392;1255;110022;-72
2023/11/25 02:10:52;;;;;;;19.50;7.00;;;;;;;0.89;77.17;96982.13;105507;1257;97517;-72
2023/11/25 02:13:20;;;;;;;18.20;6.70;;;;;;;0.92;77.21;96979.98;105450;1252;107430;-72
2023/11/25 02:15:54;;;;;;;18.70;6.30;;;;;;;0.94;77.03;96973.75;105494;1256;96616;-72
2023/11/25 02:18:22;;;;;;;16.20;5.90;;;;;;;0.96;77.15;96969.25;105495;1256;96594;-72
2023/11/25 02:20:50;;;;;;;15.30;5.40;;;;;;;1.01;77.13;96968.96;105513;1256;109699;-72
2023/11/25 02:23:24;;;;;;;14.90;5.20;;;;;;;1.03;76.92;96966.34;105420;1258;97905;-72
2023/11/25 02:25:52;;;;;;;15.50;5.40;;;;;;;1.06;77.14;96961.11;105253;1259;107693;-73
2023/11/25 02:28:21;;;;;;;14.40;4.90;;;;;;;1.06;77.05;96960.20;105300;1261;96684;-72
2023/11/25 02:30:50;;;;;;;14.10;5.50;;;;;;;1.07;76.88;96963.30;105234;1267;96632;-72
2023/11/25 02:33:19;;;;;;;14.90;5.60;;;;;;;1.05;76.81;96966.25;105454;1256;109629;-73
2023/11/25 02:35:46;;;;;;;14.40;4.80;;;;;;;0.99;76.70;96969.08;105415;1261;97919;-73
2023/11/25 02:38:15;;;;;;;13.30;5.40;;;;;;;0.97;76.88;96970.23;105406;1265;107000;-72
2023/11/25 02:40:44;;;;;;;16.50;4.70;;;;;;;0.94;76.91;96968.70;105710;1266;96680;-71
2023/11/25 02:43:12;;;;;;;17.30;5.10;;;;;;;0.90;76.66;96967.04;105282;1261;96507;-71
2023/11/25 02:45:40;;;;;;;16.20;5.60;;;;;;;0.87;76.93;96969.16;105139;1267;108687;-72
2023/11/25 02:48:09;;;;;;;15.60;5.50;;;;;;;0.85;76.91;96969.65;105228;1257;98022;-72
2023/11/25 02:50:37;;;;;;;14.80;4.80;;;;;;;0.83;76.90;96971.38;105553;1267;107390;-71
2023/11/25 02:53:05;;;;;;;14.60;4.70;;;;;;;0.79;76.85;96966.23;105386;1259;96720;-72
2023/11/25 02:55:33;;;;;;;17.50;5.40;;;;;;;0.75;76.76;96964.91;105680;1256;96993;-75
2023/11/25 02:58:02;;;;;;;14.10;4.60;;;;;;;0.73;76.81;96967.79;105760;1253;109320;-72
2023/11/25 03:00:30;;;;;;;14.50;4.90;;;;;;;0.77;77.14;96969.86;105518;1255;96595;-72
2023/11/25 03:03:07;;;;;;;12.70;4.40;;;;;;;0.80;76.87;96971.20;105249;1261;107655;-72
2023/11/25 03:05:42;;;;;;;13.30;4.40;;;;;;;0.83;76.93;96972.41;105539;1259;96599;-72
2023/11/25 03:08:11;;;;;;;12.10;4.10;;;;;;;0.85;76.92;96970.02;105691;1257;96685;-72
2023/11/25 03:10:46;;;;;;;12.20;4.20;;;;;;;0.86;77.04;96972.38;105462;1253;109890;-72
2023/11/25 03:13:15;;;;;;;11.70;3.90;;;;;;;0.86;77.12;96970.63;105576;1256;96604;-72
2023/11/25 03:15:43;;;;;;;11.50;3.90;;;;;;;0.87;77.01;96976.12;105630;1257;107493;-72
2023/11/25 03:18:11;;;;;;;12.50;4.20;;;;;;;0.90;77.19;96980.14;105680;1255;96593;-72
2023/11/25 03:20:39;;;;;;;12.60;4.20;;;;;;;0.92;77.07;96982.13;105417;1256;96620;-72
2023/11/25 03:23:08;;;;;;;15.70;6.50;;;;;;;0.94;77.16;96979.21;105662;1254;109218;-71
2023/11/25 03:25:37;;;;;;;19.40;8.10;;;;;;;0.95;77.06;96979.99;105700;1266;97734;-72
2023/11/25 03:28:08;;;;;;;25.20;10.10;;;;;;;0.96;77.06;96982.20;105324;1259;107570;-72
2023/11/25 03:30:36;;;;;;;22.50;9.30;;;;;;;0.96;77.08;96978.70;105465;1264;96704;-73
2023/11/25 03:33:04;;;;;;;18.10;7.10;;;;;;;0.96;77.10;96976.95;105388;1257;96583;-72
2023/11/25 03:35:33;;;;;;;15.50;5.80;;;;;;;0.93;76.89;96975.56;105229;1266;109324;-71
2023/11/25 03:38:01;;;;;;;13.30;4.90;;;;;;;0.80;76.70;96976.41;105471;1258;96606;-73
2023/11/25 03:40:29;;;;;;;14.40;4.90;;;;;;;0.72;76.48;96975.94;105212;1266;107195;-72
2023/11/25 03:42:58;;;;;;;13.70;4.80;;;;;;;0.68;76.85;96972.51;105349;1260;96672;-72
2023/11/25 03:45:26;;;;;;;14.30;4.70;;;;;;;0.69;77.04;96969.98;105375;1258;98011;-72
2023/11/25 03:47:54;;;;;;;14.20;4.60;;;;;;;0.70;77.08;96970.48;105391;1256;109930;-72
2023/11/25 03:50:22;;;;;;;18.40;5.50;;;;;;;0.71;77.06;96967.80;105290;1257;96577;-72
2023/11/25 03:52:50;;;;;;;17.20;5.20;;;;;;;0.72;76.99;96967.70;105333;1260;106701;-73
2023/11/25 03:55:19;;;;;;;17.40;5.60;;;;;;;0.73;77.11;96964.65;105253;1260;96716;-72
2023/11/25 03:57:47;;;;;;;17.00;5.70;;;;;;;0.74;77.22;96967.77;105230;1259;96599;-72
2023/11/25 04:00:15;;;;;;;16.90;5.60;;;;;;;0.74;77.08;96963.55;105342;1257;109091;-72
2023/11/25 04:02:46;;;;;;;19.10;6.80;;;;;;;0.74;77.29;96966.54;106007;1256;96585;-72
2023/11/25 04:05:16;;;;;;;24.00;10.20;;;;;;;0.74;77.23;96969.66;105443;1254;107671;-72
2023/11/25 04:07:45;;;;;;;23.40;10.80;;;;;;;0.73;76.96;96962.78;105363;1254;96638;-73
2023/11/25 04:10:13;;;;;;;22.20;8.70;;;;;;;0.72;77.07;96966.98;105256;1268;96509;-72
2023/11/25 04:12:43;;;;;;;16.20;7.10;;;;;;;0.71;76.99;96965.82;105463;1257;110584;-72
2023/11/25 04:15:12;;;;;;;17.90;7.60;;;;;;;0.66;77.03;96962.52;105442;1257;97924;-73
2023/11/25 04:17:40;;;;;;;19.40;8.40;;;;;;;0.64;76.90;96963.73;105384;1267;107403;-72
2023/11/25 04:20:13;;;;;;;20.60;8.30;;;;;;;0.59;76.79;96965.42;105383;1258;97413;-72
2023/11/25 04:22:42;;;;;;;19.50;6.80;;;;;;;0.53;76.68;96962.84;105179;1266;96594;-72
2023/11/25 04:25:12;;;;;;;16.70;5.90;;;;;;;0.50;76.75;96970.23;105399;1257;109948;-72
2023/11/25 04:27:46;;;;;;;29.30;11.60;;;;;;;0.48;77.00;96978.85;105464;1256;96591;-72
2023/11/25 04:30:16;;;;;;;29.10;11.70;;;;;;;0.42;76.62;96984.83;105335;1260;107462;-72
2023/11/25 04:32:46;;;;;;;19.50;7.10;;;;;;;0.34;76.56;96990.08;105507;1266;96507;-72
2023/11/25 04:35:16;;;;;;;18.80;5.90;;;;;;;0.26;77.03;96995.96;105592;1257;96504;-72
2023/11/25 04:37:45;;;;;;;15.60;6.50;;;;;;;0.27;76.83;96995.41;106770;1255;109980;-72
2023/11/25 04:40:14;;;;;;;15.00;5.10;;;;;;;0.25;77.03;96996.05;106561;1254;96563;-71
2023/11/25 04:42:43;;;;;;;12.30;4.70;;;;;;;0.25;77.07;97003.18;105347;1258;107251;-72
2023/11/25 04:45:16;;;;;;;14.60;4.90;;;;;;;0.24;76.99;97006.91;105609;1259;96713;-73
2023/11/25 04:47:45;;;;;;;15.30;5.30;;;;;;;0.23;76.87;97007.98;105269;1254;96594;-72
2023/11/25 04:50:15;;;;;;;16.20;5.60;;;;;;;0.21;77.00;97012.84;105290;1254;109247;-72
2023/11/25 04:52:43;;;;;;;16.90;6.10;;;;;;;0.21;76.86;97014.55;105954;1256;96660;-75
2023/11/25 04:55:14;;;;;;;20.10;8.10;;;;;;;0.22;77.00;97010.86;105333;1256;107748;-76
2023/11/25 04:57:43;;;;;;;20.90;8.10;;;;;;;0.20;76.82;97011.35;107335;1254;96731;-76
2023/11/25 05:00:13;;;;;;;21.60;9.30;;;;;;;0.19;76.93;97009.14;105419;1253;97648;-76
2023/11/25 05:02:42;;;;;;;20.80;7.80;;;;;;;0.18;76.90;97005.90;105712;1257;111876;-76
2023/11/25 05:05:12;;;;;;;19.40;6.40;;;;;;;0.17;76.95;97006.30;105425;1256;96502;-77
2023/11/25 05:07:40;;;;;;;16.40;5.80;;;;;;;0.15;76.88;97004.52;105583;1258;109064;-75
2023/11/25 05:10:09;;;;;;;17.80;6.60;;;;;;;0.13;76.93;97008.95;105590;1261;96600;-75
2023/11/25 05:12:41;;;;;;;20.30;6.70;;;;;;;0.14;76.91;97009.61;106034;1254;96582;-75
2023/11/25 05:15:10;;;;;;;19.60;7.10;;;;;;;0.13;76.90;97009.31;108657;1253;109605;-76
2023/11/25 05:17:39;;;;;;;19.90;8.10;;;;;;;0.13;76.86;97014.87;108442;1253;96694;-76
2023/11/25 05:20:15;;;;;;;22.30;7.80;;;;;;;0.13;76.79;97022.40;107676;1256;107518;-75
2023/11/25 05:22:44;;;;;;;22.40;8.30;;;;;;;0.10;76.85;97025.91;108235;1252;96503;-75
2023/11/25 05:25:15;;;;;;;29.90;10.60;;;;;;;0.09;76.83;97026.83;105882;1255;96604;-75
2023/11/25 05:27:44;;;;;;;24.70;9.90;;;;;;;0.07;76.88;97029.77;105475;1257;109960;-76
2023/11/25 05:30:13;;;;;;;24.00;8.40;;;;;;;0.06;76.86;97035.58;105419;1254;96566;-76
2023/11/25 05:32:42;;;;;;;20.30;7.70;;;;;;;0.07;76.79;97041.79;105585;1255;108004;-76
2023/11/25 05:35:13;;;;;;;19.80;7.10;;;;;;;0.08;76.96;97036.30;105458;1257;96586;-76
2023/11/25 05:37:43;;;;;;;21.70;8.50;;;;;;;0.11;77.00;97046.41;105327;1257;96706;-76
2023/11/25 05:40:13;;;;;;;25.50;9.50;;;;;;;0.12;76.91;97044.63;105525;1256;109824;-77
2023/11/25 05:42:47;;;;;;;21.20;8.80;;;;;;;0.14;77.07;97042.19;105453;1257;96593;-75
2023/11/25 05:45:17;;;;;;;22.10;8.40;;;;;;;0.18;77.09;97042.35;105580;1267;107420;-75
2023/11/25 05:47:47;;;;;;;19.70;7.20;;;;;;;0.19;77.07;97035.82;105592;1255;97015;-76
2023/11/25 05:50:19;;;;;;;19.10;7.20;;;;;;;0.20;77.07;97040.26;105568;1257;97522;-77
2023/11/25 05:52:50;;;;;;;17.40;7.10;;;;;;;0.22;77.10;97042.25;105748;1257;109506;-76
2023/11/25 05:55:21;;;;;;;19.30;8.10;;;;;;;0.23;77.23;97049.84;105563;1255;96703;-76
2023/11/25 05:57:50;;;;;;;18.50;7.50;;;;;;;0.25;77.03;97046.56;105641;1257;107225;-76
2023/11/25 06:00:21;;;;;;;30.30;9.90;;;;;;;0.27;77.14;97059.35;105562;1256;96591;-76
2023/11/25 06:02:50;;;;;;;26.60;11.00;;;;;;;0.30;77.05;97063.19;105549;1253;96597;-76
2023/11/25 06:05:18;;;;;;;32.40;11.40;;;;;;;0.34;77.23;97066.27;105790;1267;110881;-74
2023/11/25 06:07:46;;;;;;;24.00;10.40;;;;;;;0.38;77.21;97074.54;106946;1257;96525;-75
2023/11/25 06:10:15;;;;;;;25.70;11.30;;;;;;;0.41;77.24;97079.56;107412;1253;107119;-76
2023/11/25 06:12:43;;;;;;;22.00;9.00;;;;;;;0.46;77.34;97078.02;105430;1260;97942;-76
2023/11/25 06:15:11;;;;;;;19.60;7.10;;;;;;;0.51;77.36;97072.54;105509;1256;97474;-76
2023/11/25 06:17:39;;;;;;;15.70;6.30;;;;;;;0.54;77.35;97073.73;105645;1252;109068;-75
2023/11/25 06:20:08;;;;;;;16.60;6.20;;;;;;;0.56;77.31;97074.98;105621;1257;96606;-77
2023/11/25 06:22:38;;;;;;;15.20;5.90;;;;;;;0.57;77.37;97075.06;105443;1257;107846;-76
2023/11/25 06:25:06;;;;;;;15.80;6.80;;;;;;;0.61;77.45;97081.85;105558;1257;96520;-77
2023/11/25 06:27:34;;;;;;;16.60;6.30;;;;;;;0.62;77.53;97085.97;105566;1254;96762;-75
2023/11/25 06:30:02;;;;;;;12.00;4.10;;;;;;;0.62;77.57;97088.56;105567;1254;110317;-78
2023/11/25 06:32:32;;;;;;;11.90;3.20;;;;;;;0.64;77.42;97092.59;105682;1254;96484;-69
2023/11/25 06:35:01;;;;;;;9.30;3.40;;;;;;;0.66;77.48;97096.31;105653;1254;107315;-70
2023/11/25 06:37:30;;;;;;;12.10;4.20;;;;;;;0.67;77.68;97099.55;105746;1257;97756;-71
2023/11/25 06:39:58;;;;;;;12.50;4.30;;;;;;;0.70;77.58;97101.83;105701;1257;96616;-72
2023/11/25 06:42:26;;;;;;;19.00;8.60;;;;;;;0.70;77.56;97105.80;105683;1257;109836;-72
2023/11/25 06:44:54;;;;;;;23.90;11.70;;;;;;;0.73;77.65;97107.75;105286;1257;96531;-74
2023/11/25 06:47:22;;;;;;;19.60;9.40;;;;;;;0.75;77.69;97106.91;105311;1257;107316;-73
2023/11/25 06:49:51;;;;;;;13.80;5.30;;;;;;;0.78;77.85;97109.02;105399;1256;96601;-73
2023/11/25 06:52:19;;;;;;;18.10;7.40;;;;;;;0.80;77.69;97108.35;105535;1253;96614;-73
2023/11/25 06:54:47;;;;;;;13.90;5.50;;;;;;;0.80;77.60;97113.06;105522;1258;109579;-73
2023/11/25 06:57:15;;;;;;;17.40;6.30;;;;;;;0.80;77.67;97115.48;105442;1266;96507;-73
2023/11/25 06:59:45;;;;;;;17.70;7.90;;;;;;;0.80;77.83;97118.99;105531;1257;108062;-72
2023/11/25 07:02:14;;;;;;;18.30;6.50;;;;;;;0.81;77.69;97118.39;105643;1253;96694;-79
2023/11/25 07:04:43;;;;;;;14.80;5.20;;;;;;;0.85;77.67;97122.67;105720;1257;97509;-78
2023/11/25 07:07:11;;;;;;;14.20;6.40;;;;;;;0.86;77.53;97120.84;105787;1254;108410;-78
2023/11/25 07:09:40;;;;;;;14.40;6.60;;;;;;;0.89;77.67;97117.70;105602;1254;96595;-78
2023/11/25 07:12:10;;;;;;;17.70;7.40;;;;;;;0.94;77.95;97118.96;105544;1254;106426;-77
2023/11/25 07:14:38;;;;;;;24.50;9.80;;;;;;;0.96;77.89;97123.73;105407;1256;96643;-77
2023/11/25 07:17:06;;;;;;;21.10;9.60;;;;;;;1.01;77.92;97121.48;105770;1254;96588;-76
2023/11/25 07:19:34;;;;;;;14.80;6.60;;;;;;;1.04;77.73;97117.27;105662;1256;108879;-77
2023/11/25 07:22:03;;;;;;;16.00;6.30;;;;;;;1.05;78.04;97113.90;105575;1257;97086;-77
2023/11/25 07:24:32;;;;;;;17.20;7.70;;;;;;;1.07;77.77;97113.77;105547;1257;108190;-79
2023/11/25 07:27:04;;;;;;;20.00;9.30;;;;;;;1.09;77.80;97117.81;105385;1257;97680;-76
2023/11/25 07:29:35;;;;;;;20.00;7.80;;;;;;;1.14;77.95;97115.09;105477;1254;97935;-77
2023/11/25 07:32:03;;;;;;;21.00;10.00;;;;;;;1.16;77.48;97113.87;107156;1256;110370;-78
2023/11/25 07:34:31;;;;;;;22.10;9.40;;;;;;;1.22;77.81;97110.20;105575;1257;96502;-78
2023/11/25 07:36:59;;;;;;;22.30;10.60;;;;;;;1.26;77.67;97111.84;105466;1267;107408;-79
2023/11/25 07:39:29;;;;;;;24.30;12.30;;;;;;;1.28;77.70;97110.46;105647;1254;96591;-78
2023/11/25 07:41:57;;;;;;;28.00;14.10;;;;;;;1.33;77.77;97116.09;105633;1257;96631;-78
2023/11/25 07:44:31;;;;;;;28.40;15.80;;;;;;;1.37;77.69;97112.85;106892;1254;109823;-78
2023/11/25 07:47:42;;;;;;;;;;;;;;;;;;;;;
2023/11/25 07:50:12;;;;;;;29.60;13.80;;;;;;;1.45;77.64;97119.65;105432;1254;107653;-73
2023/11/25 07:52:40;;;;;;;25.70;12.20;;;;;;;1.50;77.88;97124.04;105392;1257;96597;-76
2023/11/25 07:55:08;;;;;;;25.70;11.70;;;;;;;1.55;77.74;97126.52;105374;1256;96565;-74
2023/11/25 07:57:37;;;;;;;25.60;11.40;;;;;;;1.59;77.76;97126.44;105463;1254;109460;-74
2023/11/25 08:00:15;;;;;;;22.30;10.60;;;;;;;1.61;77.67;97130.15;105419;1257;97409;-72
2023/11/25 08:02:44;;;;;;;21.90;9.10;;;;;;;1.59;77.63;97134.80;105479;1254;107641;-74
2023/11/25 08:05:21;;;;;;;23.90;12.60;;;;;;;1.56;77.73;97138.13;105448;1257;97269;-76
2023/11/25 08:07:51;;;;;;;24.00;10.80;;;;;;;1.54;77.67;97145.41;105236;1270;96667;-74
2023/11/25 08:10:23;;;;;;;25.40;12.20;;;;;;;1.55;77.86;97153.08;105565;1256;109757;-75
2023/11/25 08:12:51;;;;;;;23.40;10.90;;;;;;;1.49;77.59;97161.65;105516;1258;96689;-76
2023/11/25 08:15:19;;;;;;;26.90;14.10;;;;;;;1.46;77.81;97166.37;105493;1267;107739;-74
2023/11/25 08:17:48;;;;;;;60.10;27.60;;;;;;;1.43;77.72;97176.72;105311;1257;96696;-73
2023/11/25 08:20:17;;;;;;;23.70;9.90;;;;;;;1.35;77.68;97184.23;105446;1257;96629;-74
2023/11/25 08:22:45;;;;;;;23.00;10.10;;;;;;;1.26;77.38;97187.95;105522;1255;109989;-74
2023/11/25 08:25:13;;;;;;;18.70;8.10;;;;;;;1.17;77.58;97200.04;105581;1254;97924;-74
2023/11/25 08:27:42;;;;;;;21.70;10.10;;;;;;;1.11;77.69;97201.54;105406;1257;107698;-73
2023/11/25 08:30:10;;;;;;;18.20;8.00;;;;;;;1.06;77.37;97207.40;105580;1257;97535;-73
2023/11/25 08:32:39;;;;;;;25.20;13.10;;;;;;;1.03;77.78;97210.00;105606;1253;97031;-74
2023/11/25 08:35:09;;;;;;;20.60;9.70;;;;;;;1.01;77.83;97214.31;105532;1254;109862;-74
2023/11/25 08:37:38;;;;;;;19.10;7.90;;;;;;;1.02;77.84;97216.17;105603;1256;96590;-74
2023/11/25 08:40:21;;;;;;;13.60;5.70;;;;;;;1.04;77.81;97220.23;105657;1268;109118;-74
2023/11/25 08:42:49;;;;;;;17.80;6.30;;;;;;;1.07;77.96;97227.23;105437;1254;96591;-76
2023/11/25 08:45:19;;;;;;;10.70;4.50;;;;;;;1.10;77.63;97232.85;105500;1252;96583;-77
2023/11/25 08:47:47;;;;;;;17.20;6.60;;;;;;;1.07;77.79;97239.06;105475;1257;110055;-75
2023/11/25 08:50:17;;;;;;;15.40;5.40;;;;;;;1.08;77.92;97249.16;105475;1267;96691;-77
2023/11/25 08:52:48;;;;;;;14.40;6.00;;;;;;;1.08;77.97;97252.15;105572;1256;107588;-73
2023/11/25 08:55:19;;;;;;;12.80;5.70;;;;;;;1.07;77.86;97253.98;105488;1255;96592;-79
2023/11/25 08:57:51;;;;;;;10.90;5.20;;;;;;;1.05;77.90;97259.29;105511;1253;96569;-75
2023/11/25 09:00:19;;;;;;;13.20;5.80;;;;;;;1.02;77.81;97267.20;105625;1254;110100;-74
2023/11/25 09:02:50;;;;;;;15.10;5.70;;;;;;;1.03;78.01;97272.33;105796;1253;96626;-75
2023/11/25 09:05:25;;;;;;;9.90;5.00;;;;;;;1.02;77.68;97280.60;105673;1268;107387;-74
2023/11/25 09:07:55;;;;;;;;;;;;;;;1.01;77.78;97278.63;105373;1254;97144;-77
2023/11/25 09:10:24;;;;;;;15.60;6.80;;;;;;;1.01;77.94;97282.60;105391;1253;97608;-75
2023/11/25 09:12:53;;;;;;;16.90;7.20;;;;;;;0.99;77.62;97287.57;105482;1258;108932;-73
2023/11/25 09:15:22;;;;;;;21.50;8.50;;;;;;;0.99;77.75;97286.89;105276;1257;98096;-74
2023/11/25 09:17:50;;;;;;;56.20;25.30;;;;;;;1.00;77.69;97288.38;105512;1257;107633;-74
2023/11/25 09:20:21;;;;;;;63.30;27.70;;;;;;;1.02;77.97;97285.30;105376;1256;96676;-73
2023/11/25 09:22:51;;;;;;;32.30;13.60;;;;;;;1.06;77.79;97284.58;105534;1253;98325;-77
2023/11/25 09:25:20;;;;;;;27.60;10.80;;;;;;;1.06;77.95;97287.86;105229;1253;108729;-76
2023/11/25 09:27:50;;;;;;;24.40;9.20;;;;;;;1.10;77.97;97292.52;105407;1257;97415;-73
2023/11/25 09:30:18;;;;;;;25.20;11.10;;;;;;;1.11;77.94;97288.95;105510;1257;107240;-75
2023/11/25 09:32:46;;;;;;;26.80;11.60;;;;;;;1.12;78.02;97288.21;105458;1257;96587;-74
2023/11/25 09:35:14;;;;;;;23.80;9.50;;;;;;;1.20;78.04;97288.95;105571;1254;96616;-73
2023/11/25 09:37:44;;;;;;;21.30;9.00;;;;;;;1.28;77.97;97289.81;105472;1255;109379;-72
2023/11/25 09:40:15;;;;;;;20.80;7.90;;;;;;;1.34;77.84;97296.77;105444;1258;96573;-73
2023/11/25 09:42:46;;;;;;;19.40;7.70;;;;;;;1.37;78.06;97298.67;105530;1268;107790;-74
2023/11/25 09:45:15;;;;;;;24.70;9.90;;;;;;;1.37;77.90;97298.55;105459;1254;97915;-74
2023/11/25 09:47:44;;;;;;;22.90;8.20;;;;;;;1.36;77.79;97303.15;105488;1255;96687;-73
2023/11/25 09:50:13;;;;;;;22.20;7.70;;;;;;;1.32;77.80;97312.10;105477;1257;109952;-74
2023/11/25 09:52:50;;;;;;;23.00;8.40;;;;;;;1.26;77.66;97321.36;105455;1254;96508;-73
2023/11/25 09:55:22;;;;;;;26.10;11.40;;;;;;;1.20;77.67;97322.64;105419;1255;107648;-73
2023/11/25 09:57:58;;;;;;;22.70;8.10;;;;;;;1.13;77.70;97323.91;105482;1256;96587;-74
2023/11/25 10:00:28;;;;;;;24.70;8.70;;;;;;;1.07;77.73;97327.08;105534;1257;97931;-73
2023/11/25 10:02:57;;;;;;;24.30;8.90;;;;;;;1.01;77.63;97329.20;105350;1254;108593;-73
2023/11/25 10:05:27;;;;;;;23.90;7.80;;;;;;;0.98;77.77;97325.16;105533;1253;97381;-69
2023/11/25 10:07:57;;;;;;;27.60;10.70;;;;;;;0.98;77.85;97328.70;105527;1255;107401;-75
2023/11/25 10:10:28;;;;;;;30.90;11.70;;;;;;;0.97;77.92;97334.15;105634;1257;97953;-74
2023/11/25 10:12:57;;;;;;;29.20;12.40;;;;;;;1.00;77.76;97331.71;105576;1254;96647;-73
2023/11/25 10:15:25;;;;;;;32.40;12.30;;;;;;;0.98;77.84;97341.05;105779;1253;109196;-74
2023/11/25 10:17:55;;;;;;;26.20;9.10;;;;;;;0.99;77.80;97341.22;106262;1255;97068;-74
2023/11/25 10:20:23;;;;;;;29.20;12.10;;;;;;;0.99;77.73;97348.36;107543;1252;107617;-74
2023/11/25 10:22:59;;;;;;;18.00;6.20;;;;;;;0.97;77.66;97351.66;105405;1257;96587;-74
2023/11/25 10:25:30;;;;;;;19.00;6.30;;;;;;;0.95;77.50;97351.02;105443;1252;96630;-74
2023/11/25 10:27:58;;;;;;;17.80;6.10;;;;;;;0.93;77.73;97355.89;106930;1253;110508;-74
2023/11/25 10:30:28;;;;;;;20.50;7.30;;;;;;;0.95;77.80;97357.15;106446;1252;96497;-74
2023/11/25 10:32:58;;;;;;;19.20;6.80;;;;;;;0.94;77.61;97361.42;106474;1254;105789;-73
2023/11/25 10:35:26;;;;;;;21.10;6.80;;;;;;;0.89;77.53;97367.07;106991;1252;96696;-73
2023/11/25 10:37:54;;;;;;;23.40;8.50;;;;;;;0.89;77.39;97365.69;106821;1253;96584;-74
2023/11/25 10:40:24;;;;;;;20.40;7.60;;;;;;;0.87;77.50;97369.84;108091;1252;109549;-75
2023/11/25 10:42:54;;;;;;;16.40;5.60;;;;;;;0.87;77.67;97371.20;105686;1256;96597;-74
2023/11/25 10:45:24;;;;;;;18.00;6.90;;;;;;;0.90;77.54;97370.90;105451;1253;106843;-74
2023/11/25 10:47:54;;;;;;;17.20;5.80;;;;;;;0.94;77.68;97370.27;105431;1257;98021;-74
2023/11/25 10:50:25;;;;;;;22.80;9.80;;;;;;;0.97;77.61;97369.58;105522;1253;96673;-74
2023/11/25 10:53:00;;;;;;;30.30;13.10;;;;;;;1.01;77.49;97368.48;105343;1255;109803;-74
2023/11/25 10:55:28;;;;;;;17.90;6.40;;;;;;;1.00;77.47;97365.55;105344;1253;96686;-76
2023/11/25 10:58:00;;;;;;;20.70;7.10;;;;;;;0.99;77.74;97361.11;105416;1256;107766;-74
2023/11/25 11:03:34;;;;;;;14.30;5.20;;;;;;;0.97;77.60;97364.02;102288;1294;635432;-78
2023/11/25 11:06:08;;;;;;;15.50;5.60;;;;;;;0.94;77.69;97360.89;105159;1279;94350;-74
2023/11/25 11:08:37;;;;;;;15.60;6.10;;;;;;;0.93;77.63;97353.61;105175;1261;95145;-75
2023/11/25 11:11:16;;;;;;;18.50;6.20;;;;;;;0.94;77.63;97354.98;105057;1260;106644;-75
2023/11/25 11:14:02;;;;;;;18.00;7.00;;;;;;;0.96;77.47;97357.11;105318;1263;96428;-73
2023/11/25 11:16:42;;;;;;;23.00;7.20;;;;;;;0.96;77.31;97359.92;105537;1259;159725;-74
2023/11/25 11:19:13;;;;;;;20.90;7.90;;;;;;;0.99;77.50;97356.07;105622;1256;94332;-73
2023/11/25 11:21:45;;;;;;;24.30;9.20;;;;;;;1.01;77.46;97357.83;105572;1253;94633;-74
2023/11/25 11:24:18;;;;;;;20.80;7.80;;;;;;;1.05;77.62;97350.94;105353;1256;106741;-74
2023/11/25 11:27:03;;;;;;;21.40;9.00;;;;;;;1.08;77.57;97347.98;105333;1257;95320;-78
2023/11/25 11:29:41;;;;;;;19.40;7.90;;;;;;;1.13;77.49;97339.98;105380;1257;107695;-74
2023/11/25 11:32:13;;;;;;;19.00;7.70;;;;;;;1.14;77.59;97344.13;105366;1253;95225;-73
2023/11/25 11:34:42;;;;;;;35.00;14.70;;;;;;;1.12;77.57;97347.58;105501;1257;95266;-74
2023/11/25 11:37:10;;;;;;;21.00;7.30;;;;;;;1.08;77.48;97348.68;105226;1253;108091;-74